sensor_id;sensor_type;location;lat;lon;timestamp;pressure;altitude;pressure_sealevel;temperature;humidity
31337;BME280;22846;42.654;23.314;2023-07-29T00:00:35;94377.03;;;27.07;34.66
31337;BME280;22846;42.654;23.314;2023-07-29T00:03:00;94376.25;;;26.79;35.07
31337;BME280;22846;42.654;23.314;2023-07-29T00:05:25;94373.09;;;26.63;35.29
31337;BME280;22846;42.654;23.314;2023-07-29T00:07:52;94379.31;;;26.63;35.61
31337;BME280;22846;42.654;23.314;2023-07-29T00:10:17;94391.97;;;26.70;35.24
31337;BME280;22846;42.654;23.314;2023-07-29T00:12:43;94380.09;;;26.73;35.35
31337;BME280;22846;42.654;23.314;2023-07-29T00:15:08;94381.00;;;26.79;35.35
31337;BME280;22846;42.654;23.314;2023-07-29T00:17:34;94377.34;;;26.82;35.33
31337;BME280;22846;42.654;23.314;2023-07-29T00:19:59;94382.34;;;26.92;35.78
31337;BME280;22846;42.654;23.314;2023-07-29T00:22:25;94379.63;;;27.01;35.46
31337;BME280;22846;42.654;23.314;2023-07-29T00:24:53;94381.13;;;27.11;34.81
31337;BME280;22846;42.654;23.314;2023-07-29T00:27:23;94375.50;;;27.15;34.87
31337;BME280;22846;42.654;23.314;2023-07-29T00:29:48;94382.78;;;27.18;34.78
31337;BME280;22846;42.654;23.314;2023-07-29T00:32:14;94370.16;;;27.20;35.19
31337;BME280;22846;42.654;23.314;2023-07-29T00:34:39;94376.34;;;27.30;35.17
31337;BME280;22846;42.654;23.314;2023-07-29T00:37:05;94380.00;;;27.35;34.94
31337;BME280;22846;42.654;23.314;2023-07-29T00:39:34;94371.75;;;27.35;34.96
31337;BME280;22846;42.654;23.314;2023-07-29T00:41:59;94379.38;;;27.40;34.76
31337;BME280;22846;42.654;23.314;2023-07-29T00:44:24;94375.56;;;27.47;34.96
31337;BME280;22846;42.654;23.314;2023-07-29T00:46:52;94372.63;;;27.50;34.95
31337;BME280;22846;42.654;23.314;2023-07-29T00:49:18;94361.66;;;27.50;34.83
31337;BME280;22846;42.654;23.314;2023-07-29T00:51:44;94365.47;;;27.53;34.60
31337;BME280;22846;42.654;23.314;2023-07-29T00:54:10;94369.09;;;27.59;34.73
31337;BME280;22846;42.654;23.314;2023-07-29T00:56:35;94366.34;;;27.59;34.39
31337;BME280;22846;42.654;23.314;2023-07-29T00:59:01;94357.97;;;27.53;34.86
31337;BME280;22846;42.654;23.314;2023-07-29T01:01:28;94361.50;;;27.54;34.87
31337;BME280;22846;42.654;23.314;2023-07-29T01:03:54;94362.84;;;27.58;34.82
31337;BME280;22846;42.654;23.314;2023-07-29T01:09:04;94364.22;;;27.63;34.68
31337;BME280;22846;42.654;23.314;2023-07-29T01:12:08;94362.69;;;27.62;34.77
31337;BME280;22846;42.654;23.314;2023-07-29T01:15:01;94345.75;;;27.54;34.68
31337;BME280;22846;42.654;23.314;2023-07-29T01:17:36;94354.59;;;27.58;34.87
31337;BME280;22846;42.654;23.314;2023-07-29T01:20:08;94356.56;;;27.58;34.86
31337;BME280;22846;42.654;23.314;2023-07-29T01:22:35;94357.34;;;27.58;34.61
31337;BME280;22846;42.654;23.314;2023-07-29T01:25:00;94355.22;;;27.53;34.59
31337;BME280;22846;42.654;23.314;2023-07-29T01:27:26;94352.06;;;27.46;34.50
31337;BME280;22846;42.654;23.314;2023-07-29T01:29:52;94359.22;;;27.43;34.83
31337;BME280;22846;42.654;23.314;2023-07-29T01:38:01;94363.81;;;27.37;35.11
31337;BME280;22846;42.654;23.314;2023-07-29T01:40:28;94368.13;;;27.30;34.92
31337;BME280;22846;42.654;23.314;2023-07-29T01:42:54;94364.66;;;27.20;35.13
31337;BME280;22846;42.654;23.314;2023-07-29T01:45:23;94354.91;;;27.10;35.65
31337;BME280;22846;42.654;23.314;2023-07-29T01:47:50;94359.94;;;27.12;35.49
31337;BME280;22846;42.654;23.314;2023-07-29T01:50:16;94361.94;;;27.11;35.54
31337;BME280;22846;42.654;23.314;2023-07-29T01:52:41;94364.06;;;27.07;35.61
31337;BME280;22846;42.654;23.314;2023-07-29T01:55:07;94348.69;;;27.01;35.58
31337;BME280;22846;42.654;23.314;2023-07-29T01:57:33;94358.72;;;27.13;35.74
31337;BME280;22846;42.654;23.314;2023-07-29T01:59:58;94364.81;;;27.17;35.66
31337;BME280;22846;42.654;23.314;2023-07-29T02:02:24;94363.88;;;27.20;35.56
31337;BME280;22846;42.654;23.314;2023-07-29T02:04:49;94351.38;;;27.19;35.71
31337;BME280;22846;42.654;23.314;2023-07-29T02:07:17;94348.34;;;27.17;35.33
31337;BME280;22846;42.654;23.314;2023-07-29T02:09:43;94359.91;;;27.21;35.33
31337;BME280;22846;42.654;23.314;2023-07-29T02:12:08;94364.50;;;27.24;35.33
31337;BME280;22846;42.654;23.314;2023-07-29T02:14:34;94362.66;;;27.21;35.18
31337;BME280;22846;42.654;23.314;2023-07-29T02:16:59;94365.88;;;27.19;35.20
31337;BME280;22846;42.654;23.314;2023-07-29T02:19:24;94360.97;;;27.23;35.44
31337;BME280;22846;42.654;23.314;2023-07-29T02:21:50;94367.22;;;27.24;35.26
31337;BME280;22846;42.654;23.314;2023-07-29T02:24:15;94363.88;;;27.20;35.75
31337;BME280;22846;42.654;23.314;2023-07-29T02:26:41;94373.63;;;27.21;35.49
31337;BME280;22846;42.654;23.314;2023-07-29T02:29:06;94375.47;;;27.24;35.29
31337;BME280;22846;42.654;23.314;2023-07-29T02:31:32;94365.09;;;27.19;35.38
31337;BME280;22846;42.654;23.314;2023-07-29T02:33:57;94380.19;;;27.23;35.53
31337;BME280;22846;42.654;23.314;2023-07-29T02:36:23;94372.41;;;27.22;35.71
31337;BME280;22846;42.654;23.314;2023-07-29T02:38:48;94377.00;;;27.25;35.22
31337;BME280;22846;42.654;23.314;2023-07-29T02:41:14;94362.38;;;27.10;35.29
31337;BME280;22846;42.654;23.314;2023-07-29T02:43:42;94368.19;;;27.03;35.45
31337;BME280;22846;42.654;23.314;2023-07-29T02:46:08;94363.47;;;26.94;35.64
31337;BME280;22846;42.654;23.314;2023-07-29T02:48:33;94364.38;;;26.91;36.23
31337;BME280;22846;42.654;23.314;2023-07-29T02:50:59;94370.59;;;26.92;36.30
31337;BME280;22846;42.654;23.314;2023-07-29T02:53:24;94360.88;;;26.91;36.47
31337;BME280;22846;42.654;23.314;2023-07-29T02:55:50;94373.81;;;26.99;36.28
31337;BME280;22846;42.654;23.314;2023-07-29T02:58:15;94367.56;;;26.99;36.21
31337;BME280;22846;42.654;23.314;2023-07-29T03:00:41;94367.09;;;27.00;36.10
31337;BME280;22846;42.654;23.314;2023-07-29T03:03:09;94365.75;;;27.05;35.83
31337;BME280;22846;42.654;23.314;2023-07-29T03:05:35;94377.63;;;27.02;35.70
31337;BME280;22846;42.654;23.314;2023-07-29T03:08:00;94382.50;;;26.98;35.42
31337;BME280;22846;42.654;23.314;2023-07-29T03:10:25;94383.75;;;26.79;35.68
31337;BME280;22846;42.654;23.314;2023-07-29T03:12:53;94389.53;;;26.54;36.14
31337;BME280;22846;42.654;23.314;2023-07-29T03:15:23;94389.00;;;26.20;36.39
31337;BME280;22846;42.654;23.314;2023-07-29T03:17:49;94372.97;;;25.91;36.79
31337;BME280;22846;42.654;23.314;2023-07-29T03:20:15;94389.09;;;25.89;37.02
31337;BME280;22846;42.654;23.314;2023-07-29T03:22:40;94383.91;;;25.82;37.18
31337;BME280;22846;42.654;23.314;2023-07-29T03:25:06;94388.16;;;25.83;37.49
31337;BME280;22846;42.654;23.314;2023-07-29T03:27:31;94396.56;;;25.89;37.46
31337;BME280;22846;42.654;23.314;2023-07-29T03:29:56;94379.97;;;25.92;37.42
31337;BME280;22846;42.654;23.314;2023-07-29T03:32:22;94391.28;;;26.03;37.49
31337;BME280;22846;42.654;23.314;2023-07-29T03:34:48;94391.16;;;26.16;37.20
31337;BME280;22846;42.654;23.314;2023-07-29T03:37:13;94391.59;;;26.32;37.26
31337;BME280;22846;42.654;23.314;2023-07-29T03:39:38;94393.03;;;26.46;36.98
31337;BME280;22846;42.654;23.314;2023-07-29T03:42:04;94392.88;;;26.58;36.87
31337;BME280;22846;42.654;23.314;2023-07-29T03:44:29;94389.38;;;26.66;36.58
31337;BME280;22846;42.654;23.314;2023-07-29T03:46:56;94392.28;;;26.81;36.35
31337;BME280;22846;42.654;23.314;2023-07-29T03:49:21;94393.00;;;26.90;36.45
31337;BME280;22846;42.654;23.314;2023-07-29T03:51:47;94390.72;;;26.98;36.25
31337;BME280;22846;42.654;23.314;2023-07-29T03:54:12;94397.75;;;27.08;36.09
31337;BME280;22846;42.654;23.314;2023-07-29T03:56:37;94380.53;;;27.07;36.16
31337;BME280;22846;42.654;23.314;2023-07-29T03:59:04;94384.47;;;27.15;36.00
31337;BME280;22846;42.654;23.314;2023-07-29T04:01:30;94391.94;;;27.24;36.00
31337;BME280;22846;42.654;23.314;2023-07-29T04:03:55;94386.13;;;27.31;35.93
31337;BME280;22846;42.654;23.314;2023-07-29T04:06:21;94394.66;;;27.33;35.83
31337;BME280;22846;42.654;23.314;2023-07-29T04:08:46;94396.00;;;27.37;35.70
31337;BME280;22846;42.654;23.314;2023-07-29T04:11:12;94398.91;;;27.42;35.76
31337;BME280;22846;42.654;23.314;2023-07-29T04:13:37;94404.38;;;27.42;35.66
31337;BME280;22846;42.654;23.314;2023-07-29T04:16:04;94398.25;;;27.47;35.89
31337;BME280;22846;42.654;23.314;2023-07-29T04:18:29;94398.25;;;27.47;35.62
31337;BME280;22846;42.654;23.314;2023-07-29T04:20:55;94399.16;;;27.53;35.74
31337;BME280;22846;42.654;23.314;2023-07-29T04:23:20;94396.41;;;27.53;35.53
31337;BME280;22846;42.654;23.314;2023-07-29T04:25:46;94388.47;;;27.55;35.67
31337;BME280;22846;42.654;23.314;2023-07-29T04:28:11;94351.19;;;27.31;35.66
31337;BME280;22846;42.654;23.314;2023-07-29T04:30:36;94401.72;;;27.66;35.71
31337;BME280;22846;42.654;23.314;2023-07-29T04:33:02;94398.53;;;27.67;35.24
31337;BME280;22846;42.654;23.314;2023-07-29T04:35:27;94399.44;;;27.64;35.50
31337;BME280;22846;42.654;23.314;2023-07-29T04:37:53;94392.09;;;27.70;35.53
31337;BME280;22846;42.654;23.314;2023-07-29T04:40:18;94402.63;;;27.72;35.80
31337;BME280;22846;42.654;23.314;2023-07-29T04:42:44;94396.66;;;27.73;35.56
31337;BME280;22846;42.654;23.314;2023-07-29T04:45:09;94413.75;;;27.77;35.61
31337;BME280;22846;42.654;23.314;2023-07-29T04:47:35;94399.25;;;27.77;35.23
31337;BME280;22846;42.654;23.314;2023-07-29T04:50:00;94392.69;;;27.74;35.36
31337;BME280;22846;42.654;23.314;2023-07-29T04:52:25;94402.13;;;27.82;35.34
31337;BME280;22846;42.654;23.314;2023-07-29T04:54:51;94400.13;;;27.83;35.30
31337;BME280;22846;42.654;23.314;2023-07-29T04:57:16;94406.41;;;27.83;35.36
31337;BME280;22846;42.654;23.314;2023-07-29T04:59:41;94414.94;;;27.85;35.35
31337;BME280;22846;42.654;23.314;2023-07-29T05:02:07;94406.41;;;27.83;35.09
31337;BME280;22846;42.654;23.314;2023-07-29T05:04:32;94414.94;;;27.85;35.34
31337;BME280;22846;42.654;23.314;2023-07-29T05:06:58;94414.28;;;27.90;35.32
31337;BME280;22846;42.654;23.314;2023-07-29T05:09:23;94412.47;;;27.87;35.19
31337;BME280;22846;42.654;23.314;2023-07-29T05:11:49;94417.03;;;27.90;35.14
31337;BME280;22846;42.654;23.314;2023-07-29T05:14:15;94426.16;;;27.96;35.09
31337;BME280;22846;42.654;23.314;2023-07-29T05:16:42;94422.06;;;27.92;35.19
31337;BME280;22846;42.654;23.314;2023-07-29T05:19:07;94428.91;;;27.96;35.29
31337;BME280;22846;42.654;23.314;2023-07-29T05:21:33;94430.72;;;27.99;35.27
31337;BME280;22846;42.654;23.314;2023-07-29T05:23:58;94432.25;;;28.00;35.16
31337;BME280;22846;42.654;23.314;2023-07-29T05:26:23;94430.56;;;28.03;35.00
31337;BME280;22846;42.654;23.314;2023-07-29T05:28:49;94425.97;;;28.00;35.03
31337;BME280;22846;42.654;23.314;2023-07-29T05:31:14;94433.59;;;28.05;35.12
31337;BME280;22846;42.654;23.314;2023-07-29T05:33:40;94434.34;;;28.05;35.15
31337;BME280;22846;42.654;23.314;2023-07-29T05:36:05;94430.38;;;28.06;35.07
31337;BME280;22846;42.654;23.314;2023-07-29T05:38:31;94420.78;;;28.02;35.17
31337;BME280;22846;42.654;23.314;2023-07-29T05:40:56;94436.94;;;28.09;34.98
31337;BME280;22846;42.654;23.314;2023-07-29T05:43:23;94439.69;;;28.09;35.09
31337;BME280;22846;42.654;23.314;2023-07-29T05:45:48;94430.69;;;28.08;34.81
31337;BME280;22846;42.654;23.314;2023-07-29T05:48:14;94430.09;;;28.04;35.02
31337;BME280;22846;42.654;23.314;2023-07-29T05:50:39;94436.63;;;28.16;34.99
31337;BME280;22846;42.654;23.314;2023-07-29T05:53:04;94434.31;;;28.14;35.21
31337;BME280;22846;42.654;23.314;2023-07-29T05:55:30;94438.41;;;28.18;35.12
31337;BME280;22846;42.654;23.314;2023-07-29T05:57:55;94445.44;;;28.19;35.00
31337;BME280;22846;42.654;23.314;2023-07-29T06:00:21;94441.31;;;28.24;35.15
31337;BME280;22846;42.654;23.314;2023-07-29T06:02:46;94431.38;;;28.17;35.55
31337;BME280;22846;42.654;23.314;2023-07-29T06:05:12;94440.09;;;28.25;35.37
31337;BME280;22846;42.654;23.314;2023-07-29T06:07:37;94439.16;;;28.28;35.28
31337;BME280;22846;42.654;23.314;2023-07-29T06:10:03;94440.69;;;28.29;35.59
31337;BME280;22846;42.654;23.314;2023-07-29T06:12:28;94421.78;;;28.22;35.34
31337;BME280;22846;42.654;23.314;2023-07-29T06:14:54;94436.06;;;28.35;35.44
31337;BME280;22846;42.654;23.314;2023-07-29T06:17:19;94429.03;;;28.34;35.34
31337;BME280;22846;42.654;23.314;2023-07-29T06:19:45;94430.41;;;28.38;35.47
31337;BME280;22846;42.654;23.314;2023-07-29T06:22:10;94429.66;;;28.38;35.26
31337;BME280;22846;42.654;23.314;2023-07-29T06:24:35;94428.41;;;28.39;35.31
31337;BME280;22846;42.654;23.314;2023-07-29T06:27:01;94420.16;;;28.39;35.26
31337;BME280;22846;42.654;23.314;2023-07-29T06:29:26;94432.78;;;28.45;35.22
31337;BME280;22846;42.654;23.314;2023-07-29T06:31:52;94418.28;;;28.45;35.11
31337;BME280;22846;42.654;23.314;2023-07-29T06:34:17;94414.03;;;28.44;35.58
31337;BME280;22846;42.654;23.314;2023-07-29T06:36:44;94418.41;;;28.50;35.48
31337;BME280;22846;42.654;23.314;2023-07-29T06:39:09;94412.78;;;28.45;35.15
31337;BME280;22846;42.654;23.314;2023-07-29T06:41:35;94416.13;;;28.49;34.78
31337;BME280;22846;42.654;23.314;2023-07-29T06:44:00;94409.88;;;28.48;35.84
31337;BME280;22846;42.654;23.314;2023-07-29T06:46:25;94398.75;;;28.43;36.37
31337;BME280;22846;42.654;23.314;2023-07-29T06:48:51;94400.09;;;28.47;35.29
31337;BME280;22846;42.654;23.314;2023-07-29T06:51:16;94405.13;;;28.49;36.21
31337;BME280;22846;42.654;23.314;2023-07-29T06:53:42;94406.47;;;28.53;35.96
31337;BME280;22846;42.654;23.314;2023-07-29T06:56:07;94410.25;;;28.56;35.82
31337;BME280;22846;42.654;23.314;2023-07-29T06:58:33;94411.31;;;28.58;35.78
31337;BME280;22846;42.654;23.314;2023-07-29T07:00:58;94412.38;;;28.61;35.65
31337;BME280;22846;42.654;23.314;2023-07-29T07:03:23;94410.97;;;28.65;35.53
31337;BME280;22846;42.654;23.314;2023-07-29T07:05:49;94412.31;;;28.70;35.64
31337;BME280;22846;42.654;23.314;2023-07-29T07:08:15;94417.31;;;28.71;35.62
31337;BME280;22846;42.654;23.314;2023-07-29T07:10:40;94412.41;;;28.75;35.85
31337;BME280;22846;42.654;23.314;2023-07-29T07:13:06;94406.13;;;28.75;35.86
31337;BME280;22846;42.654;23.314;2023-07-29T07:15:31;94401.31;;;28.70;35.52
31337;BME280;22846;42.654;23.314;2023-07-29T07:17:57;94407.81;;;28.81;35.64
31337;BME280;22846;42.654;23.314;2023-07-29T07:20:22;94403.34;;;28.84;35.60
31337;BME280;22846;42.654;23.314;2023-07-29T07:22:48;94398.47;;;28.79;35.83
31337;BME280;22846;42.654;23.314;2023-07-29T07:25:13;94401.38;;;28.84;35.61
31337;BME280;22846;42.654;23.314;2023-07-29T07:27:38;94402.97;;;28.91;35.75
31337;BME280;22846;42.654;23.314;2023-07-29T07:30:04;94404.22;;;28.90;34.36
31337;BME280;22846;42.654;23.314;2023-07-29T07:32:30;94399.06;;;28.83;35.92
31337;BME280;22846;42.654;23.314;2023-07-29T07:34:55;94392.06;;;28.82;35.58
31337;BME280;22846;42.654;23.314;2023-07-29T07:37:21;94390.38;;;28.84;35.18
31337;BME280;22846;42.654;23.314;2023-07-29T07:39:46;94389.88;;;28.86;34.80
31337;BME280;22846;42.654;23.314;2023-07-29T07:42:11;94393.13;;;28.84;35.44
31337;BME280;22846;42.654;23.314;2023-07-29T07:44:37;94394.16;;;28.87;35.37
31337;BME280;22846;42.654;23.314;2023-07-29T07:47:02;94386.94;;;28.89;35.20
31337;BME280;22846;42.654;23.314;2023-07-29T07:49:28;94400.22;;;28.91;35.14
31337;BME280;22846;42.654;23.314;2023-07-29T07:51:54;94404.03;;;28.93;35.24
31337;BME280;22846;42.654;23.314;2023-07-29T07:54:19;94399.28;;;28.94;35.31
31337;BME280;22846;42.654;23.314;2023-07-29T07:56:45;94401.28;;;28.93;34.79
31337;BME280;22846;42.654;23.314;2023-07-29T07:59:10;94393.22;;;28.90;34.82
31337;BME280;22846;42.654;23.314;2023-07-29T08:01:36;94401.09;;;28.97;34.99
31337;BME280;22846;42.654;23.314;2023-07-29T08:04:02;94401.84;;;28.97;35.00
31337;BME280;22846;42.654;23.314;2023-07-29T08:06:27;94391.34;;;28.96;35.22
31337;BME280;22846;42.654;23.314;2023-07-29T08:08:53;94398.63;;;28.99;35.31
31337;BME280;22846;42.654;23.314;2023-07-29T08:11:18;94391.91;;;29.00;35.22
31337;BME280;22846;42.654;23.314;2023-07-29T08:13:43;94405.94;;;29.02;35.08
31337;BME280;22846;42.654;23.314;2023-07-29T08:16:09;94394.38;;;28.98;35.31
31337;BME280;22846;42.654;23.314;2023-07-29T08:18:34;94386.75;;;28.93;35.39
31337;BME280;22846;42.654;23.314;2023-07-29T08:21:00;94403.50;;;29.03;35.57
31337;BME280;22846;42.654;23.314;2023-07-29T08:23:30;94406.72;;;29.02;35.17
31337;BME280;22846;42.654;23.314;2023-07-29T08:25:57;94394.00;;;29.04;35.43
31337;BME280;22846;42.654;23.314;2023-07-29T08:28:35;94404.03;;;29.07;35.55
31337;BME280;22846;42.654;23.314;2023-07-29T08:31:01;94399.63;;;29.10;36.09
31337;BME280;22846;42.654;23.314;2023-07-29T08:33:27;94393.63;;;29.11;35.75
31337;BME280;22846;42.654;23.314;2023-07-29T08:35:53;94380.88;;;29.00;36.12
31337;BME280;22846;42.654;23.314;2023-07-29T08:38:18;94401.69;;;29.15;36.54
31337;BME280;22846;42.654;23.314;2023-07-29T08:40:57;94389.34;;;29.10;36.22
31337;BME280;22846;42.654;23.314;2023-07-29T08:43:29;94396.47;;;29.17;36.12
31337;BME280;22846;42.654;23.314;2023-07-29T08:45:57;94394.75;;;29.19;36.37
31337;BME280;22846;42.654;23.314;2023-07-29T08:48:46;94385.75;;;29.19;35.85
31337;BME280;22846;42.654;23.314;2023-07-29T08:51:11;94386.81;;;29.21;34.91
31337;BME280;22846;42.654;23.314;2023-07-29T08:53:37;94383.47;;;29.17;35.65
31337;BME280;22846;42.654;23.314;2023-07-29T08:56:03;94377.22;;;29.17;35.41
31337;BME280;22846;42.654;23.314;2023-07-29T08:58:29;94381.59;;;29.23;35.94
31337;BME280;22846;42.654;23.314;2023-07-29T09:00:54;94379.09;;;29.25;35.68
31337;BME280;22846;42.654;23.314;2023-07-29T09:03:20;94383.38;;;29.26;35.83
31337;BME280;22846;42.654;23.314;2023-07-29T09:05:47;94382.91;;;29.28;35.65
31337;BME280;22846;42.654;23.314;2023-07-29T09:08:13;94382.91;;;29.28;36.08
31337;BME280;22846;42.654;23.314;2023-07-29T09:10:38;94376.16;;;29.29;32.72
31337;BME280;22846;42.654;23.314;2023-07-29T09:13:04;94368.28;;;29.22;34.89
31337;BME280;22846;42.654;23.314;2023-07-29T09:15:32;94368.09;;;29.25;35.20
31337;BME280;22846;42.654;23.314;2023-07-29T09:17:58;94370.84;;;29.25;35.21
31337;BME280;22846;42.654;23.314;2023-07-29T09:20:27;94368.88;;;29.26;35.50
31337;BME280;22846;42.654;23.314;2023-07-29T09:22:58;94366.84;;;29.26;34.92
31337;BME280;22846;42.654;23.314;2023-07-29T09:25:29;94351.31;;;29.23;35.30
31337;BME280;22846;42.654;23.314;2023-07-29T09:28:07;94357.06;;;29.25;34.59
31337;BME280;22846;42.654;23.314;2023-07-29T09:30:32;94352.34;;;29.26;34.90
31337;BME280;22846;42.654;23.314;2023-07-29T09:32:58;94361.66;;;29.28;34.66
31337;BME280;22846;42.654;23.314;2023-07-29T09:35:28;94352.63;;;29.28;34.52
31337;BME280;22846;42.654;23.314;2023-07-29T09:37:53;94346.34;;;29.27;34.31
31337;BME280;22846;42.654;23.314;2023-07-29T09:40:19;94351.66;;;29.31;34.90
31337;BME280;22846;42.654;23.314;2023-07-29T09:42:52;94352.44;;;29.31;34.77
31337;BME280;22846;42.654;23.314;2023-07-29T09:47:47;94338.47;;;29.35;35.24
31337;BME280;22846;42.654;23.314;2023-07-29T09:50:12;94337.25;;;29.36;35.10
31337;BME280;22846;42.654;23.314;2023-07-29T09:52:38;94339.22;;;29.35;34.00
31337;BME280;22846;42.654;23.314;2023-07-29T09:55:03;94340.47;;;29.34;33.79
31337;BME280;22846;42.654;23.314;2023-07-29T09:57:29;94334.69;;;29.32;32.99
31337;BME280;22846;42.654;23.314;2023-07-29T09:59:56;94332.09;;;29.29;32.78
31337;BME280;22846;42.654;23.314;2023-07-29T10:02:22;94331.38;;;29.28;33.10
31337;BME280;22846;42.654;23.314;2023-07-29T10:04:51;94329.28;;;29.23;31.91
31337;BME280;22846;42.654;23.314;2023-07-29T10:07:17;94316.66;;;29.17;32.88
31337;BME280;22846;42.654;23.314;2023-07-29T10:09:45;94330.97;;;29.21;32.72
31337;BME280;22846;42.654;23.314;2023-07-29T10:12:11;94330.22;;;29.20;32.55
31337;BME280;22846;42.654;23.314;2023-07-29T10:14:38;94329.00;;;29.21;32.80
31337;BME280;22846;42.654;23.314;2023-07-29T10:17:05;94321.59;;;29.13;33.42
31337;BME280;22846;42.654;23.314;2023-07-29T10:19:31;94319.91;;;29.15;32.81
31337;BME280;22846;42.654;23.314;2023-07-29T10:21:59;94316.19;;;29.18;33.04
31337;BME280;22846;42.654;23.314;2023-07-29T10:24:30;94306.69;;;29.19;33.07
31337;BME280;22846;42.654;23.314;2023-07-29T10:27:00;94303.44;;;29.21;32.62
31337;BME280;22846;42.654;23.314;2023-07-29T10:29:36;94301.47;;;29.21;32.21
31337;BME280;22846;42.654;23.314;2023-07-29T10:32:04;94295.00;;;29.24;32.89
31337;BME280;22846;42.654;23.314;2023-07-29T10:34:31;94289.44;;;29.19;32.87
31337;BME280;22846;42.654;23.314;2023-07-29T10:36:58;94291.22;;;29.22;32.72
31337;BME280;22846;42.654;23.314;2023-07-29T10:39:25;94290.25;;;29.25;32.17
31337;BME280;22846;42.654;23.314;2023-07-29T10:42:01;94289.97;;;29.23;32.05
31337;BME280;22846;42.654;23.314;2023-07-29T10:47:13;94289.22;;;29.22;31.91
31337;BME280;22846;42.654;23.314;2023-07-29T10:49:46;94273.56;;;29.14;30.20
31337;BME280;22846;42.654;23.314;2023-07-29T10:52:15;94278.78;;;29.26;30.20
31337;BME280;22846;42.654;23.314;2023-07-29T10:54:45;94276.50;;;29.25;30.76
31337;BME280;22846;42.654;23.314;2023-07-29T10:57:48;94271.28;;;29.27;30.25
31337;BME280;22846;42.654;23.314;2023-07-29T11:00:07;94264.53;;;29.28;30.09
31337;BME280;22846;42.654;23.314;2023-07-29T11:02:37;94270.88;;;29.34;30.15
31337;BME280;22846;42.654;23.314;2023-07-29T11:05:07;94267.97;;;29.37;30.30
31337;BME280;22846;42.654;23.314;2023-07-29T11:07:47;94261.50;;;29.40;31.13
31337;BME280;22846;42.654;23.314;2023-07-29T11:10:13;94264.81;;;29.44;31.45
31337;BME280;22846;42.654;23.314;2023-07-29T11:17:46;94252.94;;;29.53;31.41
31337;BME280;22846;42.654;23.314;2023-07-29T11:20:13;94252.72;;;29.56;31.55
31337;BME280;22846;42.654;23.314;2023-07-29T11:22:40;94258.69;;;29.55;31.82
31337;BME280;22846;42.654;23.314;2023-07-29T11:25:10;94259.75;;;29.57;31.70
31337;BME280;22846;42.654;23.314;2023-07-29T11:27:39;94252.53;;;29.60;31.23
31337;BME280;22846;42.654;23.314;2023-07-29T11:30:06;94240.72;;;29.59;31.36
31337;BME280;22846;42.654;23.314;2023-07-29T11:32:33;94251.56;;;29.63;31.46
31337;BME280;22846;42.654;23.314;2023-07-29T11:35:14;94244.81;;;29.64;31.33
31337;BME280;22846;42.654;23.314;2023-07-29T11:37:44;94247.09;;;29.65;31.99
31337;BME280;22846;42.654;23.314;2023-07-29T11:40:14;94241.09;;;29.67;32.10
31337;BME280;22846;42.654;23.314;2023-07-29T11:42:42;94237.84;;;29.68;32.15
31337;BME280;22846;42.654;23.314;2023-07-29T11:45:08;94228.28;;;29.64;31.35
31337;BME280;22846;42.654;23.314;2023-07-29T11:47:35;94233.41;;;29.71;31.39
31337;BME280;22846;42.654;23.314;2023-07-29T11:50:03;94235.66;;;29.72;30.98
31337;BME280;22846;42.654;23.314;2023-07-29T11:52:31;94234.91;;;29.72;30.75
31337;BME280;22846;42.654;23.314;2023-07-29T11:54:58;94226.91;;;29.74;31.13
31337;BME280;22846;42.654;23.314;2023-07-29T11:57:24;94230.97;;;29.78;30.22
31337;BME280;22846;42.654;23.314;2023-07-29T11:59:50;94230.50;;;29.80;30.34
31337;BME280;22846;42.654;23.314;2023-07-29T12:02:16;94233.06;;;29.83;29.83
31337;BME280;22846;42.654;23.314;2023-07-29T12:04:44;94211.69;;;29.78;30.14
31337;BME280;22846;42.654;23.314;2023-07-29T12:07:12;94226.84;;;29.88;29.06
31337;BME280;22846;42.654;23.314;2023-07-29T12:09:39;94214.31;;;29.87;29.82
31337;BME280;22846;42.654;23.314;2023-07-29T12:12:05;94215.63;;;29.91;30.32
31337;BME280;22846;42.654;23.314;2023-07-29T12:14:31;94209.09;;;29.89;30.19
31337;BME280;22846;42.654;23.314;2023-07-29T12:17:00;94210.09;;;29.91;30.64
31337;BME280;22846;42.654;23.314;2023-07-29T12:19:34;94206.91;;;29.93;30.02
31337;BME280;22846;42.654;23.314;2023-07-29T12:22:01;94211.16;;;29.94;29.92
31337;BME280;22846;42.654;23.314;2023-07-29T12:24:27;94191.97;;;29.85;30.35
31337;BME280;22846;42.654;23.314;2023-07-29T12:26:52;94196.16;;;29.95;29.52
31337;BME280;22846;42.654;23.314;2023-07-29T12:29:19;94198.44;;;29.96;29.11
31337;BME280;22846;42.654;23.314;2023-07-29T12:31:47;94190.63;;;29.95;30.26
31337;BME280;22846;42.654;23.314;2023-07-29T12:34:20;94193.88;;;29.93;30.54
31337;BME280;22846;42.654;23.314;2023-07-29T12:36:48;94189.94;;;29.80;30.70
31337;BME280;22846;42.654;23.314;2023-07-29T12:39:21;94196.06;;;29.70;30.29
31337;BME280;22846;42.654;23.314;2023-07-29T12:41:48;94196.78;;;29.50;30.22
31337;BME280;22846;42.654;23.314;2023-07-29T12:44:13;94201.78;;;29.32;30.47
31337;BME280;22846;42.654;23.314;2023-07-29T12:46:39;94198.97;;;29.12;30.43
31337;BME280;22846;42.654;23.314;2023-07-29T12:49:05;94190.19;;;28.94;30.40
31337;BME280;22846;42.654;23.314;2023-07-29T12:51:30;94188.84;;;28.75;30.64
31337;BME280;22846;42.654;23.314;2023-07-29T12:53:56;94184.63;;;28.59;30.32
31337;BME280;22846;42.654;23.314;2023-07-29T12:56:21;94182.06;;;28.41;30.56
31337;BME280;22846;42.654;23.314;2023-07-29T12:58:46;94196.44;;;28.36;30.65
31337;BME280;22846;42.654;23.314;2023-07-29T13:01:12;94190.47;;;28.23;30.68
31337;BME280;22846;42.654;23.314;2023-07-29T13:03:44;94188.91;;;28.08;31.20
31337;BME280;22846;42.654;23.314;2023-07-29T13:06:10;94179.41;;;27.95;31.45